createdAt,value
2019-05-03T00:02:52.292Z,99.90
2019-05-03T00:05:38.554Z,99.90
2019-05-03T00:08:13.506Z,99.70
2019-05-03T00:10:49.052Z,99.20
2019-05-03T00:13:43.625Z,98.90
2019-05-03T00:16:29.069Z,99.00
2019-05-03T00:19:04.013Z,98.80
2019-05-03T00:21:39.409Z,98.50
2019-05-03T00:24:16.769Z,98.70
2019-05-03T00:26:51.669Z,98.70
2019-05-03T00:32:21.696Z,98.10
2019-05-03T00:35:01.800Z,98.20
2019-05-03T00:37:38.801Z,98.30
2019-05-03T00:40:32.247Z,97.80
2019-05-03T00:43:06.488Z,98.20
2019-05-03T00:45:42.216Z,98.10
2019-05-03T00:48:17.436Z,98.30
2019-05-03T00:50:53.603Z,97.90
2019-05-03T00:53:28.613Z,98.10
2019-05-03T00:56:22.023Z,98.10
2019-05-03T00:58:58.373Z,98.20
2019-05-03T01:01:33.177Z,98.30
2019-05-03T01:04:08.613Z,98.20
2019-05-03T01:06:43.481Z,98.30
2019-05-03T01:09:22.419Z,98.60
2019-05-03T01:11:56.368Z,98.70
2019-05-03T01:14:31.680Z,98.80
2019-05-03T01:17:06.563Z,98.90
2019-05-03T01:19:42.661Z,99.00
2019-05-03T01:22:37.114Z,99.40
2019-05-03T01:25:12.587Z,99.40
2019-05-03T01:27:47.418Z,99.40
2019-05-03T01:30:22.816Z,99.40
2019-05-03T01:32:59.081Z,99.30
2019-05-03T01:35:34.842Z,99.50
2019-05-03T01:38:11.630Z,99.40
2019-05-03T01:40:46.133Z,99.30
2019-05-03T01:43:22.218Z,99.30
2019-05-03T01:45:57.495Z,99.40
2019-05-03T01:48:48.364Z,99.50
2019-05-03T01:51:32.589Z,99.80
2019-05-03T01:54:08.309Z,99.90
2019-05-03T01:56:55.739Z,99.90
2019-05-03T01:59:19.274Z,99.90
2019-05-03T02:01:55.925Z,99.90
2019-05-03T02:04:32.234Z,99.90
2019-05-03T02:07:08.552Z,99.90
2019-05-03T02:09:43.620Z,99.90
2019-05-03T02:12:18.597Z,99.90
2019-05-03T02:14:53.505Z,99.90
2019-05-03T02:17:28.608Z,99.90
2019-05-03T02:20:03.681Z,99.90
2019-05-03T02:22:39.396Z,99.90
2019-05-03T02:25:18.394Z,99.90
2019-05-03T02:27:57.690Z,99.90
2019-05-03T02:30:54.775Z,99.90
2019-05-03T02:33:32.913Z,99.90
2019-05-03T02:36:06.968Z,99.90
2019-05-03T02:38:43.013Z,99.90
2019-05-03T02:41:18.414Z,99.90
2019-05-03T02:43:56.022Z,99.90
2019-05-03T02:46:41.227Z,99.90
2019-05-03T02:52:07.130Z,99.90
2019-05-03T02:54:46.249Z,99.90
2019-05-03T02:57:19.315Z,99.90
2019-05-03T02:59:54.950Z,99.90
2019-05-03T03:02:29.966Z,99.90
2019-05-03T03:05:05.962Z,99.90
2019-05-03T03:07:41.336Z,99.90
2019-05-03T03:10:17.692Z,99.90
2019-05-03T03:12:55.265Z,99.90
2019-05-03T03:15:31.673Z,99.90
2019-05-03T03:18:07.510Z,99.90
2019-05-03T03:20:44.956Z,99.90
2019-05-03T03:23:21.503Z,99.90
2019-05-03T03:25:57.754Z,99.90
2019-05-03T03:28:35.911Z,99.90
2019-05-03T03:31:28.223Z,99.90
2019-05-03T03:34:08.058Z,99.90
2019-05-03T03:37:00.703Z,99.90
2019-05-03T03:39:26.483Z,99.90
2019-05-03T03:42:05.288Z,99.90
2019-05-03T03:44:59.336Z,99.90
2019-05-03T03:47:35.993Z,99.90
2019-05-03T03:50:11.054Z,99.90
2019-05-03T03:52:47.583Z,99.90
2019-05-03T03:55:22.639Z,99.90
2019-05-03T03:58:00.446Z,99.90
2019-05-03T04:00:36.203Z,99.90
2019-05-03T04:03:12.094Z,99.90
2019-05-03T04:05:47.082Z,99.90
2019-05-03T04:08:25.055Z,99.90
2019-05-03T04:11:00.573Z,99.90
2019-05-03T04:13:37.727Z,99.90
2019-05-03T04:16:21.029Z,99.90
2019-05-03T04:19:01.087Z,99.90
2019-05-03T04:21:37.388Z,99.90
2019-05-03T04:24:12.670Z,99.90
2019-05-03T04:26:47.574Z,99.90
2019-05-03T04:29:45.179Z,99.90
2019-05-03T04:32:18.490Z,99.90
2019-05-03T04:34:55.698Z,99.90
2019-05-03T04:37:49.675Z,99.90
2019-05-03T04:40:26.021Z,99.90
2019-05-03T04:43:06.119Z,99.90
2019-05-03T04:45:42.384Z,99.90
2019-05-03T04:48:17.912Z,99.90
2019-05-03T04:50:54.965Z,99.90
2019-05-03T04:53:30.340Z,99.90
2019-05-03T04:56:06.865Z,99.90
2019-05-03T04:59:00.340Z,99.90
2019-05-03T05:01:36.279Z,99.90
2019-05-03T05:04:11.210Z,99.90
2019-05-03T05:06:47.368Z,99.90
2019-05-03T05:09:22.172Z,99.90
2019-05-03T05:11:57.454Z,99.90
2019-05-03T05:14:37.340Z,99.90
2019-05-03T05:17:16.295Z,99.90
2019-05-03T05:20:05.285Z,99.90
2019-05-03T05:22:40.704Z,99.90
2019-05-03T05:25:16.760Z,99.90
2019-05-03T05:28:05.505Z,99.90
2019-05-03T05:30:40.273Z,99.90
2019-05-03T05:33:28.401Z,99.90
2019-05-03T05:36:04.862Z,99.90
2019-05-03T05:38:42.527Z,99.90
2019-05-03T05:41:18.739Z,99.90
2019-05-03T05:43:54.988Z,99.90
2019-05-03T05:46:30.913Z,99.90
2019-05-03T05:49:08.010Z,99.90
2019-05-03T05:51:44.450Z,99.90
2019-05-03T05:54:20.893Z,99.90
2019-05-03T05:57:00.084Z,99.90
2019-05-03T05:59:45.973Z,99.90
2019-05-03T06:02:21.747Z,99.90
2019-05-03T06:04:57.069Z,99.90
2019-05-03T06:07:39.128Z,99.90
2019-05-03T06:10:16.846Z,99.90
2019-05-03T06:12:54.536Z,99.90
2019-05-03T06:15:46.061Z,99.90
2019-05-03T06:18:38.670Z,99.90
2019-05-03T06:21:18.888Z,99.90
2019-05-03T06:23:58.951Z,99.90
2019-05-03T06:26:38.649Z,99.90
2019-05-03T06:29:32.786Z,99.90
2019-05-03T06:32:25.370Z,99.90
2019-05-03T06:35:00.310Z,99.90
2019-05-03T06:37:45.898Z,99.90
2019-05-03T06:40:21.909Z,99.90
2019-05-03T06:43:08.365Z,99.90
2019-05-03T06:45:35.227Z,99.90
2019-05-03T06:48:17.663Z,99.90
2019-05-03T06:50:53.106Z,99.90
2019-05-03T06:53:28.654Z,99.90
2019-05-03T06:56:04.531Z,99.90
2019-05-03T06:58:39.901Z,99.90
2019-05-03T07:01:18.540Z,99.90
2019-05-03T07:04:10.513Z,99.90
2019-05-03T07:06:55.045Z,99.90
2019-05-03T07:09:33.053Z,99.90
2019-05-03T07:12:07.906Z,99.90
2019-05-03T07:14:44.874Z,99.90
2019-05-03T07:17:18.858Z,99.90
2019-05-03T07:19:54.701Z,99.90
2019-05-03T07:22:30.755Z,99.90
2019-05-03T07:25:06.613Z,99.90
2019-05-03T07:27:41.541Z,99.90
2019-05-03T07:30:16.846Z,99.90
2019-05-03T07:32:55.939Z,99.90
2019-05-03T07:35:31.618Z,99.90
2019-05-03T07:38:09.167Z,99.90
2019-05-03T07:40:44.556Z,99.90
2019-05-03T07:43:19.816Z,99.90
2019-05-03T07:45:55.255Z,99.90
2019-05-03T07:48:30.346Z,99.90
2019-05-03T07:51:06.077Z,99.90
2019-05-03T07:53:40.921Z,99.90
2019-05-03T07:56:20.823Z,99.90
2019-05-03T07:59:02.729Z,99.90
2019-05-03T08:01:35.566Z,99.90
2019-05-03T08:04:10.936Z,99.90
2019-05-03T08:06:46.710Z,99.90
2019-05-03T08:09:22.168Z,99.90
2019-05-03T08:11:59.853Z,99.90
2019-05-03T08:14:37.743Z,99.90
2019-05-03T08:17:15.259Z,99.90
2019-05-03T08:19:50.273Z,99.90
2019-05-03T08:22:26.031Z,99.90
2019-05-03T08:25:00.998Z,99.90
2019-05-03T08:27:39.473Z,99.90
2019-05-03T08:30:14.935Z,99.90
2019-05-03T08:32:51.438Z,99.90
2019-05-03T08:35:42.404Z,99.90
2019-05-03T08:38:17.727Z,99.90
2019-05-03T08:40:54.815Z,99.90
2019-05-03T08:43:29.978Z,99.90
2019-05-03T08:46:04.925Z,99.90
2019-05-03T08:48:41.019Z,99.90
2019-05-03T08:51:16.898Z,99.90
2019-05-03T08:53:51.999Z,99.90
2019-05-03T08:56:26.893Z,99.90
2019-05-03T08:59:04.696Z,99.90
2019-05-03T09:01:42.257Z,99.90
2019-05-03T09:04:17.209Z,99.90
2019-05-03T09:06:52.132Z,99.90
2019-05-03T09:09:31.331Z,99.90
2019-05-03T09:12:06.005Z,99.90
2019-05-03T09:14:45.521Z,99.90
2019-05-03T09:17:17.661Z,99.90
2019-05-03T09:19:54.692Z,99.90
2019-05-03T09:22:28.943Z,99.90
2019-05-03T09:25:04.984Z,99.90
2019-05-03T09:27:39.944Z,99.90
2019-05-03T09:30:15.612Z,99.90
2019-05-03T09:32:50.503Z,99.90
2019-05-03T09:35:31.406Z,99.90
2019-05-03T09:38:01.717Z,99.90
2019-05-03T09:40:37.352Z,99.90
2019-05-03T09:43:12.591Z,99.90
2019-05-03T09:45:48.449Z,99.90
2019-05-03T09:48:25.285Z,99.90
2019-05-03T09:51:00.348Z,99.90
2019-05-03T09:53:39.429Z,99.90
2019-05-03T09:56:15.498Z,99.90
2019-05-03T09:58:50.717Z,99.90
2019-05-03T10:01:26.415Z,99.90
2019-05-03T10:04:01.433Z,99.90
2019-05-03T10:06:37.121Z,99.90
2019-05-03T10:09:12.093Z,99.90
2019-05-03T10:11:47.662Z,99.90
2019-05-03T10:14:22.641Z,99.90
2019-05-03T10:16:59.725Z,99.90
2019-05-03T10:19:39.922Z,99.90
2019-05-03T10:22:11.460Z,99.90
2019-05-03T10:24:46.766Z,99.90
2019-05-03T10:27:22.219Z,99.90
2019-05-03T10:30:09.733Z,99.90
2019-05-03T10:32:37.217Z,99.90
2019-05-03T10:35:15.168Z,99.90
2019-05-03T10:37:50.234Z,99.90
2019-05-03T10:40:31.358Z,99.90
2019-05-03T10:43:06.637Z,99.90
2019-05-03T10:45:41.690Z,99.90
2019-05-03T10:48:16.936Z,99.90
2019-05-03T10:50:51.879Z,99.90
2019-05-03T10:53:28.872Z,99.90
2019-05-03T10:56:26.730Z,99.90
2019-05-03T10:59:01.687Z,99.90
2019-05-03T11:01:56.231Z,99.90
2019-05-03T11:04:33.579Z,99.90
2019-05-03T11:07:08.472Z,99.90
2019-05-03T11:09:49.564Z,99.90
2019-05-03T11:12:20.940Z,99.90
2019-05-03T11:14:56.519Z,99.90
2019-05-03T11:17:31.444Z,99.90
2019-05-03T11:20:07.233Z,99.90
2019-05-03T11:22:42.189Z,99.90
2019-05-03T11:25:17.742Z,99.90
2019-05-03T11:27:55.208Z,99.90
2019-05-03T11:30:30.794Z,99.90
2019-05-03T11:33:15.160Z,99.90
2019-05-03T11:35:51.802Z,99.90
2019-05-03T11:38:28.159Z,99.90
2019-05-03T11:41:04.865Z,99.90
2019-05-03T11:43:39.730Z,99.90
2019-05-03T11:46:15.262Z,99.90
2019-05-03T11:48:50.055Z,99.90
2019-05-03T11:51:25.343Z,99.90
2019-05-03T11:54:00.517Z,99.90
2019-05-03T11:56:35.941Z,99.90
2019-05-03T11:59:10.821Z,99.90
2019-05-03T12:01:55.034Z,99.90
2019-05-03T12:04:29.481Z,99.90
2019-05-03T12:07:05.944Z,99.90
2019-05-03T12:09:41.646Z,99.90
2019-05-03T12:12:18.489Z,99.90
2019-05-03T12:14:54.805Z,99.90
2019-05-03T12:17:50.779Z,99.90
2019-05-03T12:20:18.719Z,99.90
2019-05-03T12:22:53.872Z,99.90
2019-05-03T12:25:30.048Z,99.90
2019-05-03T12:28:05.910Z,99.90
2019-05-03T12:30:41.033Z,99.90
2019-05-03T12:33:16.597Z,99.90
2019-05-03T12:35:54.840Z,99.90
2019-05-03T12:38:29.658Z,99.90
2019-05-03T12:41:05.575Z,99.90
2019-05-03T12:43:40.635Z,99.90
2019-05-03T12:46:16.885Z,99.90
2019-05-03T12:48:52.140Z,99.90
2019-05-03T12:51:27.694Z,99.90
2019-05-03T12:54:04.719Z,99.90
2019-05-03T12:56:38.952Z,99.90
2019-05-03T12:59:16.017Z,99.90
2019-05-03T13:02:08.206Z,99.90
2019-05-03T13:04:44.977Z,99.90
2019-05-03T13:07:27.397Z,99.90
2019-05-03T13:10:05.173Z,99.90
2019-05-03T13:12:50.607Z,99.90
2019-05-03T13:15:16.122Z,99.90
2019-05-03T13:17:51.529Z,99.90
2019-05-03T13:20:26.946Z,99.90
2019-05-03T13:23:02.044Z,99.90
2019-05-03T13:25:37.698Z,99.90
2019-05-03T13:28:12.780Z,99.90
2019-05-03T13:30:48.174Z,99.90
2019-05-03T13:33:23.007Z,99.90
2019-05-03T13:36:10.798Z,99.90
2019-05-03T13:38:45.791Z,99.90
2019-05-03T13:41:21.036Z,99.90
2019-05-03T13:43:55.854Z,99.90
2019-05-03T13:46:31.185Z,99.90
2019-05-03T13:49:08.664Z,99.90
2019-05-03T13:51:42.626Z,99.90
2019-05-03T13:54:17.538Z,99.90
2019-05-03T13:56:55.174Z,99.90
2019-05-03T13:59:29.817Z,99.90
2019-05-03T14:02:15.281Z,99.90
2019-05-03T14:04:50.119Z,99.90
2019-05-03T14:07:17.333Z,99.90
2019-05-03T14:09:52.113Z,99.90
2019-05-03T14:12:27.626Z,99.90
2019-05-03T14:15:02.939Z,99.90
2019-05-03T14:20:58.219Z,99.90
2019-05-03T14:23:34.717Z,99.90
2019-05-03T14:26:31.150Z,99.90
2019-05-03T14:29:22.581Z,99.90
2019-05-03T14:32:02.338Z,99.90
2019-05-03T14:34:57.593Z,99.90
2019-05-03T14:37:45.890Z,99.90
2019-05-03T14:40:32.092Z,99.90
2019-05-03T14:53:34.655Z,99.90
2019-05-03T14:56:11.408Z,99.90
2019-05-03T14:59:07.504Z,99.90
2019-05-03T15:02:08.468Z,99.90
2019-05-03T15:04:54.927Z,99.90
2019-05-03T15:07:31.642Z,99.90
2019-05-03T15:10:08.075Z,99.90
2019-05-03T15:12:45.008Z,99.90
2019-05-03T15:15:19.608Z,99.90
2019-05-03T15:17:55.023Z,99.90
2019-05-03T15:20:50.922Z,99.90
2019-05-03T15:23:25.961Z,99.90
2019-05-03T15:26:01.718Z,99.90
2019-05-03T15:28:36.640Z,99.90
2019-05-03T15:31:11.832Z,99.90
2019-05-03T15:33:46.762Z,99.90
2019-05-03T15:36:22.606Z,99.90
2019-05-03T15:38:57.928Z,99.90
2019-05-03T15:41:34.492Z,99.90
2019-05-03T15:44:20.693Z,99.90
2019-05-03T15:46:57.170Z,99.90
2019-05-03T15:49:32.243Z,99.90
2019-05-03T15:52:07.579Z,99.90
2019-05-03T15:54:44.384Z,99.90
2019-05-03T15:57:18.814Z,99.90
2019-05-03T15:59:55.118Z,99.90
2019-05-03T16:02:29.966Z,99.90
2019-05-03T16:05:04.945Z,99.90
2019-05-03T16:07:41.114Z,99.90
2019-05-03T16:10:16.212Z,99.90
2019-05-03T16:12:51.568Z,99.90
2019-05-03T16:15:26.413Z,99.90
2019-05-03T16:18:01.651Z,99.90
2019-05-03T16:20:39.245Z,99.90
2019-05-03T16:23:13.169Z,99.90
2019-05-03T16:25:48.833Z,99.90
2019-05-03T16:28:25.431Z,99.90
2019-05-03T16:31:01.481Z,99.90
2019-05-03T16:33:37.259Z,99.90
2019-05-03T16:36:12.253Z,99.90
2019-05-03T16:38:47.619Z,99.90
2019-05-03T16:41:24.676Z,99.90
2019-05-03T16:43:59.110Z,99.90
2019-05-03T16:46:34.317Z,99.90
2019-05-03T16:49:09.501Z,99.90
2019-05-03T16:51:44.561Z,99.90
2019-05-03T16:54:19.644Z,99.90
2019-05-03T16:56:54.954Z,99.90
2019-05-03T16:59:30.111Z,99.90
2019-05-03T17:02:09.798Z,99.90
2019-05-03T17:04:52.719Z,99.90
2019-05-03T17:07:42.062Z,99.90
2019-05-03T17:10:20.934Z,99.90
2019-05-03T17:12:56.941Z,99.90
2019-05-03T17:15:32.833Z,99.90
2019-05-03T17:18:07.952Z,99.90
2019-05-03T17:20:43.001Z,99.90
2019-05-03T17:23:18.160Z,99.90
2019-05-03T17:25:53.416Z,99.90
2019-05-03T17:28:29.138Z,99.90
2019-05-03T17:31:04.777Z,99.90
2019-05-03T17:33:50.742Z,99.90
2019-05-03T17:36:16.243Z,99.90
2019-05-03T17:38:52.258Z,99.90
2019-05-03T17:41:28.987Z,99.90
2019-05-03T17:44:11.166Z,99.90
2019-05-03T17:46:46.413Z,99.90
2019-05-03T17:49:22.224Z,99.90
2019-05-03T17:52:05.346Z,99.90
2019-05-03T17:54:42.018Z,99.90
2019-05-03T17:57:24.386Z,99.90
2019-05-03T18:00:04.243Z,99.90
2019-05-03T18:02:41.373Z,99.90
2019-05-03T18:05:34.488Z,99.90
2019-05-03T18:08:14.174Z,99.90
2019-05-03T18:10:51.564Z,99.90
2019-05-03T18:13:27.049Z,99.90
2019-05-03T18:16:04.450Z,99.90
2019-05-03T18:18:39.187Z,99.90
2019-05-03T18:21:15.833Z,99.90
2019-05-03T18:24:04.794Z,99.90
2019-05-03T18:26:39.455Z,99.90
2019-05-03T18:29:14.678Z,99.90
2019-05-03T18:31:49.477Z,99.90
2019-05-03T18:34:26.013Z,99.90
2019-05-03T18:37:00.984Z,99.90
2019-05-03T18:39:36.612Z,99.90
2019-05-03T18:42:12.425Z,99.90
2019-05-03T18:44:49.337Z,99.90
2019-05-03T18:47:25.834Z,99.90
2019-05-03T18:50:01.095Z,99.90
2019-05-03T18:52:36.005Z,99.90
2019-05-03T18:55:11.486Z,99.90
2019-05-03T18:57:46.303Z,99.90
2019-05-03T19:00:24.555Z,99.90
2019-05-03T19:03:20.269Z,99.90
2019-05-03T19:06:05.258Z,99.90
2019-05-03T19:08:40.918Z,99.90
2019-05-03T19:11:35.164Z,99.90
2019-05-03T19:14:11.872Z,99.90
2019-05-03T19:17:06.952Z,99.90
2019-05-03T19:19:44.534Z,99.90
2019-05-03T19:22:21.197Z,99.90
2019-05-03T19:24:56.311Z,99.90
2019-05-03T19:27:31.224Z,99.90
2019-05-03T19:30:06.428Z,99.50
2019-05-03T19:32:41.760Z,99.90
2019-05-03T19:35:16.778Z,99.60
2019-05-03T19:37:52.120Z,99.90
2019-05-03T19:40:27.068Z,99.40
2019-05-03T19:43:05.135Z,99.90
2019-05-03T19:45:39.745Z,99.90
2019-05-03T19:48:18.181Z,99.90
2019-05-03T19:50:52.273Z,99.60
2019-05-03T19:53:32.225Z,99.90
2019-05-03T19:56:07.284Z,99.90
2019-05-03T19:58:44.190Z,99.20
2019-05-03T20:01:29.215Z,99.20
2019-05-03T20:04:15.514Z,99.60
2019-05-03T20:06:51.436Z,99.80
2019-05-03T20:09:27.833Z,99.40
2019-05-03T20:12:04.506Z,99.00
2019-05-03T20:14:39.766Z,99.50
2019-05-03T20:17:14.895Z,99.90
2019-05-03T20:19:50.574Z,99.90
2019-05-03T20:22:25.460Z,99.70
2019-05-03T20:25:00.655Z,99.80
2019-05-03T20:27:35.650Z,99.70
2019-05-03T20:30:12.073Z,99.40
2019-05-03T20:32:47.119Z,99.70
2019-05-03T20:35:24.933Z,99.60
2019-05-03T20:37:59.573Z,99.90
2019-05-03T20:40:35.083Z,99.90
2019-05-03T20:43:14.100Z,99.90
2019-05-03T20:45:50.618Z,99.90
2019-05-03T20:48:26.692Z,99.90
2019-05-03T20:51:02.161Z,99.90
2019-05-03T20:53:37.537Z,99.90
2019-05-03T20:56:15.320Z,99.90
2019-05-03T20:58:49.901Z,99.90
2019-05-03T21:01:25.691Z,99.90
2019-05-03T21:04:00.819Z,99.90
2019-05-03T21:06:36.045Z,99.90
2019-05-03T21:09:11.140Z,99.90
2019-05-03T21:11:46.778Z,99.90
2019-05-03T21:14:21.697Z,99.90
2019-05-03T21:17:15.423Z,99.90
2019-05-03T21:19:55.141Z,99.90
2019-05-03T21:22:31.343Z,99.90
2019-05-03T21:25:13.937Z,99.90
2019-05-03T21:27:49.419Z,99.90
2019-05-03T21:30:24.672Z,99.80
2019-05-03T21:33:00.706Z,99.90
2019-05-03T21:35:41.508Z,99.80
2019-05-03T21:38:11.778Z,99.30
2019-05-03T21:40:46.554Z,99.00
2019-05-03T21:43:22.297Z,99.20
2019-05-03T21:46:17.640Z,99.60
2019-05-03T21:49:04.914Z,99.60
2019-05-03T21:51:39.886Z,99.30
2019-05-03T21:54:15.290Z,99.30
2019-05-03T21:56:50.409Z,99.20
2019-05-03T21:59:26.618Z,99.30
2019-05-03T22:02:01.560Z,99.20
2019-05-03T22:04:36.658Z,98.70
2019-05-03T22:07:11.728Z,99.10
2019-05-03T22:09:46.772Z,98.90
2019-05-03T22:12:21.689Z,99.10
2019-05-03T22:15:07.248Z,99.00
2019-05-03T22:18:24.713Z,98.80
2019-05-03T22:21:02.732Z,98.70
2019-05-03T22:23:42.032Z,99.10
2019-05-03T22:26:17.437Z,98.60
2019-05-03T22:28:52.492Z,98.80
2019-05-03T22:31:27.907Z,98.60
2019-05-03T22:34:06.179Z,99.00
2019-05-03T22:36:39.392Z,98.40
2019-05-03T22:39:15.808Z,98.60
2019-05-03T22:41:51.148Z,97.80
2019-05-03T22:44:26.194Z,97.80
2019-05-03T22:47:01.388Z,98.60
2019-05-03T22:49:37.244Z,98.20
2019-05-03T22:52:15.268Z,98.10
2019-05-03T22:54:55.473Z,97.80
2019-05-03T22:57:30.836Z,98.40
2019-05-03T23:00:06.276Z,98.20
2019-05-03T23:02:45.567Z,97.00
2019-05-03T23:05:24.215Z,97.20
2019-05-03T23:07:59.321Z,98.00
2019-05-03T23:10:37.786Z,97.20
2019-05-03T23:13:15.303Z,97.50
2019-05-03T23:15:49.509Z,97.70
2019-05-03T23:18:25.090Z,97.20
2019-05-03T23:21:07.111Z,97.10
2019-05-03T23:23:50.688Z,97.70
2019-05-03T23:26:29.900Z,97.40
2019-05-03T23:29:05.204Z,97.70
2019-05-03T23:31:39.958Z,97.10
2019-05-03T23:34:15.127Z,97.10
2019-05-03T23:36:50.075Z,97.20
2019-05-03T23:39:25.375Z,96.80
2019-05-03T23:42:00.139Z,97.00
2019-05-03T23:44:35.518Z,97.00
2019-05-03T23:47:17.845Z,96.20
2019-05-03T23:49:55.314Z,96.10
2019-05-03T23:52:35.172Z,96.30
2019-05-03T23:55:08.645Z,96.20
2019-05-03T23:57:44.666Z,96.30
